CDT,Max TemperatureF,Mean TemperatureF,Min TemperatureF,Max Dew PointF,MeanDew PointF,Min DewpointF,Max Humidity, Mean Humidity, Min Humidity, Max Sea Level PressureIn, Mean Sea Level PressureIn, Min Sea Level PressureIn, Max VisibilityMiles, Mean VisibilityMiles, Min VisibilityMiles, Max Wind SpeedMPH, Mean Wind SpeedMPH, Max Gust SpeedMPH,PrecipitationIn, CloudCover, Events, WindDirDegrees
2012-10-1,74,62,50,54,46,38,86,57,27,29.85,29.82,29.77,10,10,10,20,8,25,0.00,0,,34
2012-10-2,75,61,47,50,47,44,93,63,33,29.89,29.86,29.83,10,10,10,15,5,20,0.00,0,,339
2012-10-3,75,66,56,56,53,48,86,68,49,30.03,29.96,29.88,10,10,8,15,5,20,T,2,Rain,186
2012-10-4,77,64,50,59,53,43,93,74,54,30.22,30.12,30.03,10,10,10,20,11,28,T,5,,253
2012-10-5,50,43,36,47,42,34,93,79,65,30.27,30.23,30.20,10,10,4,20,9,23,0.27,7,Rain-Thunderstorm,11
2012-10-6,49,42,35,36,33,28,100,75,49,30.31,30.28,30.24,10,10,10,13,7,25,0.00,4,,315
2012-10-7,54,43,32,35,31,27,96,66,35,30.33,30.25,30.18,10,10,10,16,5,17,0.00,1,,282
2012-10-8,61,46,31,38,33,30,96,66,35,30.20,30.13,30.04,10,10,10,22,9,26,0.00,0,,194
2012-10-9,69,55,40,55,43,37,92,67,42,30.09,29.98,29.90,10,10,9,23,10,28,T,3,Rain,223
2012-10-10,59,48,36,39,33,29,86,60,33,30.30,30.22,30.10,10,10,10,13,6,15,0.00,0,,289
2012-10-11,61,50,38,50,41,31,85,68,51,30.20,30.17,30.10,10,10,10,15,7,20,0.00,6,,164
2012-10-12,62,56,49,51,44,35,86,67,47,30.35,30.25,30.16,10,10,10,20,11,25,0.00,6,,88
2012-10-13,75,66,57,65,61,53,93,81,68,30.11,29.93,29.74,10,7,2,26,12,33,1.20,8,Rain-Thunderstorm,172
2012-10-14,68,59,49,63,56,43,100,76,52,29.97,29.75,29.60,10,9,2,26,14,32,0.16,6,Rain,229
2012-10-15,73,60,46,47,43,41,86,61,35,30.04,29.97,29.91,10,10,10,9,5,13,0.00,0,,186
2012-10-16,81,66,51,51,46,42,83,57,30,29.88,29.71,29.58,10,10,10,29,13,36,0.00,0,,183
2012-10-17,63,56,49,61,54,42,97,75,52,29.61,29.50,29.40,10,6,2,24,9,35,0.43,6,Rain-Thunderstorm,222
2012-10-18,59,52,45,41,34,30,77,57,36,29.63,29.61,29.59,10,10,10,30,16,40,T,5,Rain,259
2012-10-19,52,49,45,44,42,41,92,82,71,29.82,29.70,29.58,10,10,6,23,13,31,0.05,8,Rain,275
2012-10-20,67,55,42,46,43,40,96,70,44,29.91,29.84,29.80,10,10,10,10,5,18,0.00,1,,213
2012-10-21,79,65,50,64,54,43,79,67,54,29.90,29.86,29.83,10,10,10,14,9,18,0.00,3,,147
2012-10-22,80,74,68,67,65,64,87,75,62,29.89,29.86,29.82,10,10,10,21,10,26,0.01,6,Rain,173
2012-10-23,81,73,64,67,63,57,93,77,61,29.94,29.89,29.79,10,8,1,17,10,22,0.93,6,Rain-Thunderstorm,176
2012-10-24,82,74,66,66,62,57,81,68,54,29.91,29.86,29.79,10,10,10,20,13,24,0.00,1,,178
2012-10-25,77,60,42,64,49,33,89,77,65,30.22,29.93,29.75,10,10,4,30,15,39,0.03,6,Rain,296
2012-10-26,48,41,33,33,29,27,82,64,46,30.40,30.35,30.25,10,10,10,22,12,30,0.00,2,,358
2012-10-27,47,38,29,30,28,25,85,67,49,30.39,30.33,30.27,10,10,10,16,9,20,0.00,0,,4
2012-10-28,50,40,30,28,25,22,85,59,33,30.34,30.30,30.27,10,10,10,14,7,17,0.00,0,,3
2012-10-29,51,41,31,32,28,24,85,62,39,30.36,30.28,30.17,10,10,10,9,4,10,0.00,3,,26
2012-10-30,58,45,31,28,27,25,78,53,28,30.16,30.05,29.96,10,10,10,14,8,23,0.00,0,,338
2012-10-31,56,46,35,29,26,20,75,50,24,30.04,30.01,29.98,10,9,6,14,8,17,0.00,0,,309